sensor_id;sensor_type;location;lat;lon;timestamp;P1;durP1;ratioP1;P2;durP2;ratioP2
51034;SDS011;37062;52.546;13.230;2024-02-14T00:00:14;5.13;;;3.85;;
51034;SDS011;37062;52.546;13.230;2024-02-14T00:02:45;6.00;;;4.18;;
51034;SDS011;37062;52.546;13.230;2024-02-14T00:05:16;6.82;;;4.47;;
51034;SDS011;37062;52.546;13.230;2024-02-14T00:07:44;6.75;;;4.22;;
51034;SDS011;37062;52.546;13.230;2024-02-14T00:10:12;7.00;;;4.13;;
51034;SDS011;37062;52.546;13.230;2024-02-14T00:12:41;5.78;;;3.92;;
51034;SDS011;37062;52.546;13.230;2024-02-14T00:15:09;4.45;;;3.72;;
51034;SDS011;37062;52.546;13.230;2024-02-14T00:17:39;5.20;;;3.88;;
51034;SDS011;37062;52.546;13.230;2024-02-14T00:20:08;5.82;;;3.75;;
51034;SDS011;37062;52.546;13.230;2024-02-14T00:22:38;6.70;;;3.67;;
51034;SDS011;37062;52.546;13.230;2024-02-14T00:25:07;7.00;;;3.95;;
51034;SDS011;37062;52.546;13.230;2024-02-14T00:27:36;5.67;;;3.77;;
51034;SDS011;37062;52.546;13.230;2024-02-14T00:30:04;5.60;;;3.75;;
51034;SDS011;37062;52.546;13.230;2024-02-14T00:32:33;7.10;;;4.10;;
51034;SDS011;37062;52.546;13.230;2024-02-14T00:35:04;6.13;;;3.58;;
51034;SDS011;37062;52.546;13.230;2024-02-14T00:37:33;5.13;;;3.53;;
51034;SDS011;37062;52.546;13.230;2024-02-14T00:40:01;5.73;;;4.07;;
51034;SDS011;37062;52.546;13.230;2024-02-14T00:42:29;6.07;;;4.35;;
51034;SDS011;37062;52.546;13.230;2024-02-14T00:44:57;5.73;;;4.20;;
51034;SDS011;37062;52.546;13.230;2024-02-14T00:47:26;6.57;;;3.80;;
51034;SDS011;37062;52.546;13.230;2024-02-14T00:49:54;4.90;;;4.03;;
51034;SDS011;37062;52.546;13.230;2024-02-14T00:52:24;5.38;;;3.83;;
51034;SDS011;37062;52.546;13.230;2024-02-14T00:54:52;7.22;;;4.00;;
51034;SDS011;37062;52.546;13.230;2024-02-14T00:57:21;7.53;;;4.15;;
51034;SDS011;37062;52.546;13.230;2024-02-14T00:59:52;6.15;;;4.18;;
51034;SDS011;37062;52.546;13.230;2024-02-14T01:02:22;7.07;;;4.17;;
51034;SDS011;37062;52.546;13.230;2024-02-14T01:04:52;7.43;;;4.00;;
51034;SDS011;37062;52.546;13.230;2024-02-14T01:07:21;5.90;;;3.80;;
51034;SDS011;37062;52.546;13.230;2024-02-14T01:09:50;6.07;;;4.27;;
51034;SDS011;37062;52.546;13.230;2024-02-14T01:12:19;9.27;;;5.10;;
51034;SDS011;37062;52.546;13.230;2024-02-14T01:14:47;7.30;;;4.50;;
51034;SDS011;37062;52.546;13.230;2024-02-14T01:17:15;8.00;;;5.18;;
51034;SDS011;37062;52.546;13.230;2024-02-14T01:19:44;5.57;;;4.30;;
51034;SDS011;37062;52.546;13.230;2024-02-14T01:22:12;6.30;;;4.22;;
51034;SDS011;37062;52.546;13.230;2024-02-14T01:24:42;6.22;;;4.47;;
51034;SDS011;37062;52.546;13.230;2024-02-14T01:27:12;5.25;;;4.32;;
51034;SDS011;37062;52.546;13.230;2024-02-14T01:29:41;6.30;;;4.38;;
51034;SDS011;37062;52.546;13.230;2024-02-14T01:32:09;6.22;;;4.30;;
51034;SDS011;37062;52.546;13.230;2024-02-14T01:34:37;6.82;;;4.57;;
51034;SDS011;37062;52.546;13.230;2024-02-14T01:37:05;6.70;;;5.28;;
51034;SDS011;37062;52.546;13.230;2024-02-14T01:39:33;7.03;;;4.50;;
51034;SDS011;37062;52.546;13.230;2024-02-14T01:42:02;5.68;;;4.65;;
51034;SDS011;37062;52.546;13.230;2024-02-14T01:44:34;6.43;;;4.95;;
51034;SDS011;37062;52.546;13.230;2024-02-14T01:47:03;6.90;;;5.05;;
51034;SDS011;37062;52.546;13.230;2024-02-14T01:49:33;5.85;;;4.68;;
51034;SDS011;37062;52.546;13.230;2024-02-14T01:52:03;5.45;;;4.35;;
51034;SDS011;37062;52.546;13.230;2024-02-14T01:54:33;8.82;;;4.13;;
51034;SDS011;37062;52.546;13.230;2024-02-14T01:57:02;6.93;;;4.43;;
51034;SDS011;37062;52.546;13.230;2024-02-14T01:59:32;5.47;;;4.20;;
51034;SDS011;37062;52.546;13.230;2024-02-14T02:02:03;5.80;;;4.30;;
51034;SDS011;37062;52.546;13.230;2024-02-14T02:04:34;7.63;;;4.70;;
51034;SDS011;37062;52.546;13.230;2024-02-14T02:07:03;5.43;;;4.20;;
51034;SDS011;37062;52.546;13.230;2024-02-14T02:09:32;5.82;;;4.20;;
51034;SDS011;37062;52.546;13.230;2024-02-14T02:12:00;5.00;;;4.07;;
51034;SDS011;37062;52.546;13.230;2024-02-14T02:14:34;8.20;;;4.47;;
51034;SDS011;37062;52.546;13.230;2024-02-14T02:17:03;5.32;;;4.32;;
51034;SDS011;37062;52.546;13.230;2024-02-14T02:19:34;6.00;;;4.60;;
51034;SDS011;37062;52.546;13.230;2024-02-14T02:22:02;7.20;;;4.43;;
51034;SDS011;37062;52.546;13.230;2024-02-14T02:24:32;6.65;;;4.60;;
51034;SDS011;37062;52.546;13.230;2024-02-14T02:27:01;5.93;;;4.57;;
51034;SDS011;37062;52.546;13.230;2024-02-14T02:29:29;7.38;;;4.70;;
51034;SDS011;37062;52.546;13.230;2024-02-14T02:31:59;5.68;;;4.80;;
51034;SDS011;37062;52.546;13.230;2024-02-14T02:34:27;7.93;;;5.03;;
51034;SDS011;37062;52.546;13.230;2024-02-14T02:36:55;6.83;;;4.60;;
51034;SDS011;37062;52.546;13.230;2024-02-14T02:39:24;6.65;;;4.45;;
51034;SDS011;37062;52.546;13.230;2024-02-14T02:41:53;6.20;;;4.75;;
51034;SDS011;37062;52.546;13.230;2024-02-14T02:44:24;7.77;;;4.57;;
51034;SDS011;37062;52.546;13.230;2024-02-14T02:46:53;5.43;;;4.50;;
51034;SDS011;37062;52.546;13.230;2024-02-14T02:49:22;6.35;;;4.43;;
51034;SDS011;37062;52.546;13.230;2024-02-14T02:51:50;7.03;;;4.70;;
51034;SDS011;37062;52.546;13.230;2024-02-14T02:54:18;5.70;;;4.30;;
51034;SDS011;37062;52.546;13.230;2024-02-14T02:56:47;6.57;;;4.35;;
51034;SDS011;37062;52.546;13.230;2024-02-14T02:59:17;7.20;;;4.80;;
51034;SDS011;37062;52.546;13.230;2024-02-14T03:01:45;5.60;;;4.47;;
51034;SDS011;37062;52.546;13.230;2024-02-14T03:04:15;9.77;;;5.05;;
51034;SDS011;37062;52.546;13.230;2024-02-14T03:06:45;7.18;;;4.90;;
51034;SDS011;37062;52.546;13.230;2024-02-14T03:09:13;7.60;;;4.85;;
51034;SDS011;37062;52.546;13.230;2024-02-14T03:11:42;6.28;;;4.78;;
51034;SDS011;37062;52.546;13.230;2024-02-14T03:14:10;7.70;;;5.18;;
51034;SDS011;37062;52.546;13.230;2024-02-14T03:16:39;7.57;;;4.75;;
51034;SDS011;37062;52.546;13.230;2024-02-14T03:19:09;6.45;;;5.20;;
51034;SDS011;37062;52.546;13.230;2024-02-14T03:21:37;7.10;;;4.93;;
51034;SDS011;37062;52.546;13.230;2024-02-14T03:24:05;6.63;;;4.47;;
51034;SDS011;37062;52.546;13.230;2024-02-14T03:26:37;7.05;;;4.75;;
51034;SDS011;37062;52.546;13.230;2024-02-14T03:29:05;8.23;;;4.70;;
51034;SDS011;37062;52.546;13.230;2024-02-14T03:31:34;6.43;;;4.43;;
51034;SDS011;37062;52.546;13.230;2024-02-14T03:34:04;6.25;;;4.65;;
51034;SDS011;37062;52.546;13.230;2024-02-14T03:36:32;7.53;;;4.93;;
51034;SDS011;37062;52.546;13.230;2024-02-14T03:39:01;7.63;;;4.70;;
51034;SDS011;37062;52.546;13.230;2024-02-14T03:41:30;6.88;;;4.95;;
51034;SDS011;37062;52.546;13.230;2024-02-14T03:43:59;6.85;;;5.35;;
51034;SDS011;37062;52.546;13.230;2024-02-14T03:46:29;8.40;;;5.07;;
51034;SDS011;37062;52.546;13.230;2024-02-14T03:48:58;6.80;;;4.88;;
51034;SDS011;37062;52.546;13.230;2024-02-14T03:51:28;7.22;;;4.80;;
51034;SDS011;37062;52.546;13.230;2024-02-14T03:53:56;10.68;;;5.03;;
51034;SDS011;37062;52.546;13.230;2024-02-14T03:56:24;5.15;;;4.30;;
51034;SDS011;37062;52.546;13.230;2024-02-14T03:58:53;7.73;;;5.07;;
51034;SDS011;37062;52.546;13.230;2024-02-14T04:01:21;6.80;;;5.22;;
51034;SDS011;37062;52.546;13.230;2024-02-14T04:03:50;8.23;;;5.20;;
51034;SDS011;37062;52.546;13.230;2024-02-14T04:06:18;5.75;;;4.63;;
51034;SDS011;37062;52.546;13.230;2024-02-14T04:08:48;5.18;;;4.68;;
51034;SDS011;37062;52.546;13.230;2024-02-14T04:11:16;9.00;;;4.88;;
51034;SDS011;37062;52.546;13.230;2024-02-14T04:13:44;7.43;;;4.47;;
51034;SDS011;37062;52.546;13.230;2024-02-14T04:16:13;7.93;;;4.65;;
51034;SDS011;37062;52.546;13.230;2024-02-14T04:18:42;9.13;;;4.63;;
51034;SDS011;37062;52.546;13.230;2024-02-14T04:21:10;5.82;;;4.53;;
51034;SDS011;37062;52.546;13.230;2024-02-14T04:23:39;8.85;;;4.63;;
51034;SDS011;37062;52.546;13.230;2024-02-14T04:26:08;9.52;;;5.43;;
51034;SDS011;37062;52.546;13.230;2024-02-14T04:28:38;8.35;;;4.88;;
51034;SDS011;37062;52.546;13.230;2024-02-14T04:31:07;7.22;;;4.78;;
51034;SDS011;37062;52.546;13.230;2024-02-14T04:33:36;7.78;;;4.90;;
51034;SDS011;37062;52.546;13.230;2024-02-14T04:36:05;7.20;;;4.28;;
51034;SDS011;37062;52.546;13.230;2024-02-14T04:38:33;8.25;;;4.70;;
51034;SDS011;37062;52.546;13.230;2024-02-14T04:41:02;8.07;;;4.80;;
51034;SDS011;37062;52.546;13.230;2024-02-14T04:43:32;7.03;;;4.65;;
51034;SDS011;37062;52.546;13.230;2024-02-14T04:46:01;7.32;;;4.63;;
51034;SDS011;37062;52.546;13.230;2024-02-14T04:48:33;6.47;;;4.93;;
51034;SDS011;37062;52.546;13.230;2024-02-14T04:51:01;5.88;;;4.40;;
51034;SDS011;37062;52.546;13.230;2024-02-14T04:53:31;6.90;;;4.63;;
51034;SDS011;37062;52.546;13.230;2024-02-14T04:55:59;8.27;;;5.30;;
51034;SDS011;37062;52.546;13.230;2024-02-14T04:58:27;7.57;;;4.82;;
51034;SDS011;37062;52.546;13.230;2024-02-14T05:00:57;11.57;;;5.10;;
51034;SDS011;37062;52.546;13.230;2024-02-14T05:03:25;6.45;;;4.68;;
51034;SDS011;37062;52.546;13.230;2024-02-14T05:05:53;7.25;;;4.68;;
51034;SDS011;37062;52.546;13.230;2024-02-14T05:08:22;8.75;;;4.63;;
51034;SDS011;37062;52.546;13.230;2024-02-14T05:10:50;8.35;;;4.90;;
51034;SDS011;37062;52.546;13.230;2024-02-14T05:13:18;10.02;;;5.30;;
51034;SDS011;37062;52.546;13.230;2024-02-14T05:15:46;9.30;;;5.25;;
51034;SDS011;37062;52.546;13.230;2024-02-14T05:18:16;10.40;;;5.40;;
51034;SDS011;37062;52.546;13.230;2024-02-14T05:20:45;9.30;;;5.07;;
51034;SDS011;37062;52.546;13.230;2024-02-14T05:23:13;10.85;;;5.60;;
51034;SDS011;37062;52.546;13.230;2024-02-14T05:25:43;6.70;;;5.07;;
51034;SDS011;37062;52.546;13.230;2024-02-14T05:28:12;9.55;;;5.25;;
51034;SDS011;37062;52.546;13.230;2024-02-14T05:30:41;8.35;;;5.18;;
51034;SDS011;37062;52.546;13.230;2024-02-14T05:33:09;7.65;;;5.50;;
51034;SDS011;37062;52.546;13.230;2024-02-14T05:35:39;6.82;;;5.25;;
51034;SDS011;37062;52.546;13.230;2024-02-14T05:38:07;8.18;;;5.32;;
51034;SDS011;37062;52.546;13.230;2024-02-14T05:40:35;10.25;;;5.75;;
51034;SDS011;37062;52.546;13.230;2024-02-14T05:43:05;7.43;;;5.88;;
51034;SDS011;37062;52.546;13.230;2024-02-14T05:45:34;11.18;;;5.68;;
51034;SDS011;37062;52.546;13.230;2024-02-14T05:48:02;9.40;;;5.30;;
51034;SDS011;37062;52.546;13.230;2024-02-14T05:50:31;8.13;;;5.88;;
51034;SDS011;37062;52.546;13.230;2024-02-14T05:53:00;8.27;;;5.53;;
51034;SDS011;37062;52.546;13.230;2024-02-14T05:55:29;7.85;;;5.80;;
51034;SDS011;37062;52.546;13.230;2024-02-14T05:57:57;7.82;;;5.82;;
51034;SDS011;37062;52.546;13.230;2024-02-14T06:00:25;6.88;;;4.95;;
51034;SDS011;37062;52.546;13.230;2024-02-14T06:02:55;9.23;;;5.00;;
51034;SDS011;37062;52.546;13.230;2024-02-14T06:05:23;7.43;;;5.38;;
51034;SDS011;37062;52.546;13.230;2024-02-14T06:07:51;7.93;;;5.28;;
51034;SDS011;37062;52.546;13.230;2024-02-14T06:10:21;7.05;;;5.25;;
51034;SDS011;37062;52.546;13.230;2024-02-14T06:12:51;7.93;;;4.80;;
51034;SDS011;37062;52.546;13.230;2024-02-14T06:15:20;7.10;;;4.90;;
51034;SDS011;37062;52.546;13.230;2024-02-14T06:17:48;9.07;;;5.30;;
51034;SDS011;37062;52.546;13.230;2024-02-14T06:20:17;5.30;;;4.72;;
51034;SDS011;37062;52.546;13.230;2024-02-14T06:22:45;6.50;;;4.97;;
51034;SDS011;37062;52.546;13.230;2024-02-14T06:25:28;6.57;;;4.80;;
51034;SDS011;37062;52.546;13.230;2024-02-14T06:27:56;9.23;;;5.15;;
51034;SDS011;37062;52.546;13.230;2024-02-14T06:30:25;7.82;;;5.00;;
51034;SDS011;37062;52.546;13.230;2024-02-14T06:32:58;6.82;;;4.68;;
51034;SDS011;37062;52.546;13.230;2024-02-14T06:35:28;8.70;;;5.28;;
51034;SDS011;37062;52.546;13.230;2024-02-14T06:37:57;8.73;;;5.53;;
51034;SDS011;37062;52.546;13.230;2024-02-14T06:40:32;8.57;;;5.57;;
51034;SDS011;37062;52.546;13.230;2024-02-14T06:43:00;9.68;;;4.80;;
51034;SDS011;37062;52.546;13.230;2024-02-14T06:45:29;6.60;;;4.47;;
51034;SDS011;37062;52.546;13.230;2024-02-14T06:47:57;9.18;;;4.35;;
51034;SDS011;37062;52.546;13.230;2024-02-14T06:50:25;11.57;;;5.60;;
51034;SDS011;37062;52.546;13.230;2024-02-14T06:52:55;7.32;;;5.13;;
51034;SDS011;37062;52.546;13.230;2024-02-14T06:55:26;6.13;;;4.25;;
51034;SDS011;37062;52.546;13.230;2024-02-14T06:57:56;9.85;;;5.05;;
51034;SDS011;37062;52.546;13.230;2024-02-14T07:00:24;7.50;;;4.63;;
51034;SDS011;37062;52.546;13.230;2024-02-14T07:02:52;7.28;;;4.50;;
51034;SDS011;37062;52.546;13.230;2024-02-14T07:05:20;5.50;;;3.65;;
51034;SDS011;37062;52.546;13.230;2024-02-14T07:07:48;8.00;;;4.47;;
51034;SDS011;37062;52.546;13.230;2024-02-14T07:10:17;6.13;;;3.88;;
51034;SDS011;37062;52.546;13.230;2024-02-14T07:12:45;7.07;;;3.90;;
51034;SDS011;37062;52.546;13.230;2024-02-14T07:15:15;6.50;;;4.20;;
51034;SDS011;37062;52.546;13.230;2024-02-14T07:17:44;5.15;;;3.72;;
51034;SDS011;37062;52.546;13.230;2024-02-14T07:20:13;7.80;;;3.80;;
51034;SDS011;37062;52.546;13.230;2024-02-14T07:22:43;7.75;;;4.07;;
51034;SDS011;37062;52.546;13.230;2024-02-14T07:25:12;9.13;;;4.25;;
51034;SDS011;37062;52.546;13.230;2024-02-14T07:27:40;6.20;;;3.45;;
51034;SDS011;37062;52.546;13.230;2024-02-14T07:30:09;6.45;;;3.65;;
51034;SDS011;37062;52.546;13.230;2024-02-14T07:32:39;8.80;;;3.80;;
51034;SDS011;37062;52.546;13.230;2024-02-14T07:35:08;7.32;;;3.50;;
51034;SDS011;37062;52.546;13.230;2024-02-14T07:37:37;5.88;;;3.60;;
51034;SDS011;37062;52.546;13.230;2024-02-14T07:40:06;6.93;;;3.75;;
51034;SDS011;37062;52.546;13.230;2024-02-14T07:42:35;5.78;;;3.70;;
51034;SDS011;37062;52.546;13.230;2024-02-14T07:45:04;6.32;;;3.67;;
51034;SDS011;37062;52.546;13.230;2024-02-14T07:47:32;6.53;;;3.65;;
51034;SDS011;37062;52.546;13.230;2024-02-14T07:50:02;5.15;;;3.20;;
51034;SDS011;37062;52.546;13.230;2024-02-14T07:52:31;10.32;;;3.55;;
51034;SDS011;37062;52.546;13.230;2024-02-14T07:55:02;3.92;;;3.03;;
51034;SDS011;37062;52.546;13.230;2024-02-14T07:57:31;5.25;;;3.00;;
51034;SDS011;37062;52.546;13.230;2024-02-14T07:59:59;6.20;;;3.45;;
51034;SDS011;37062;52.546;13.230;2024-02-14T08:02:29;5.22;;;3.03;;
51034;SDS011;37062;52.546;13.230;2024-02-14T08:04:57;5.05;;;3.35;;
51034;SDS011;37062;52.546;13.230;2024-02-14T08:07:27;4.40;;;3.10;;
51034;SDS011;37062;52.546;13.230;2024-02-14T08:09:56;5.80;;;3.30;;
51034;SDS011;37062;52.546;13.230;2024-02-14T08:12:24;4.18;;;3.30;;
51034;SDS011;37062;52.546;13.230;2024-02-14T08:14:52;5.22;;;3.45;;
51034;SDS011;37062;52.546;13.230;2024-02-14T08:17:20;6.20;;;3.47;;
51034;SDS011;37062;52.546;13.230;2024-02-14T08:19:49;7.53;;;3.28;;
51034;SDS011;37062;52.546;13.230;2024-02-14T08:22:17;6.25;;;3.72;;
51034;SDS011;37062;52.546;13.230;2024-02-14T08:24:47;5.45;;;3.30;;
51034;SDS011;37062;52.546;13.230;2024-02-14T08:27:15;7.35;;;3.60;;
51034;SDS011;37062;52.546;13.230;2024-02-14T08:29:44;9.05;;;3.20;;
51034;SDS011;37062;52.546;13.230;2024-02-14T08:32:12;6.57;;;3.45;;
51034;SDS011;37062;52.546;13.230;2024-02-14T08:34:41;6.82;;;3.20;;
51034;SDS011;37062;52.546;13.230;2024-02-14T08:37:09;7.75;;;3.80;;
51034;SDS011;37062;52.546;13.230;2024-02-14T08:39:38;5.60;;;3.90;;
51034;SDS011;37062;52.546;13.230;2024-02-14T08:42:08;5.97;;;4.05;;
51034;SDS011;37062;52.546;13.230;2024-02-14T08:44:36;7.80;;;4.32;;
51034;SDS011;37062;52.546;13.230;2024-02-14T08:47:06;4.75;;;2.95;;
51034;SDS011;37062;52.546;13.230;2024-02-14T08:49:35;5.68;;;2.92;;
51034;SDS011;37062;52.546;13.230;2024-02-14T08:52:03;3.35;;;2.75;;
51034;SDS011;37062;52.546;13.230;2024-02-14T08:54:32;6.90;;;2.95;;
51034;SDS011;37062;52.546;13.230;2024-02-14T08:57:01;3.78;;;2.50;;
51034;SDS011;37062;52.546;13.230;2024-02-14T08:59:31;4.82;;;2.35;;
51034;SDS011;37062;52.546;13.230;2024-02-14T09:02:00;4.15;;;2.53;;
51034;SDS011;37062;52.546;13.230;2024-02-14T09:04:29;3.60;;;2.40;;
51034;SDS011;37062;52.546;13.230;2024-02-14T09:06:57;4.13;;;2.40;;
51034;SDS011;37062;52.546;13.230;2024-02-14T09:09:25;3.67;;;2.40;;
51034;SDS011;37062;52.546;13.230;2024-02-14T09:11:53;3.92;;;2.50;;
51034;SDS011;37062;52.546;13.230;2024-02-14T09:14:22;3.58;;;2.22;;
51034;SDS011;37062;52.546;13.230;2024-02-14T09:16:53;4.43;;;2.25;;
51034;SDS011;37062;52.546;13.230;2024-02-14T09:19:22;3.78;;;3.10;;
51034;SDS011;37062;52.546;13.230;2024-02-14T09:21:51;7.03;;;3.20;;
51034;SDS011;37062;52.546;13.230;2024-02-14T09:24:20;4.57;;;2.67;;
51034;SDS011;37062;52.546;13.230;2024-02-14T09:26:48;4.35;;;2.65;;
51034;SDS011;37062;52.546;13.230;2024-02-14T09:29:16;7.32;;;2.80;;
51034;SDS011;37062;52.546;13.230;2024-02-14T09:31:44;4.95;;;2.75;;
51034;SDS011;37062;52.546;13.230;2024-02-14T09:34:15;5.43;;;2.30;;
51034;SDS011;37062;52.546;13.230;2024-02-14T09:36:47;6.72;;;2.72;;
51034;SDS011;37062;52.546;13.230;2024-02-14T09:39:16;5.43;;;2.70;;
51034;SDS011;37062;52.546;13.230;2024-02-14T09:41:46;5.22;;;3.10;;
51034;SDS011;37062;52.546;13.230;2024-02-14T09:44:19;5.05;;;2.55;;
51034;SDS011;37062;52.546;13.230;2024-02-14T09:46:47;3.15;;;2.35;;
51034;SDS011;37062;52.546;13.230;2024-02-14T09:49:18;3.63;;;2.50;;
51034;SDS011;37062;52.546;13.230;2024-02-14T09:51:47;5.00;;;2.80;;
51034;SDS011;37062;52.546;13.230;2024-02-14T09:54:16;6.80;;;2.53;;
51034;SDS011;37062;52.546;13.230;2024-02-14T09:56:47;5.47;;;3.08;;
51034;SDS011;37062;52.546;13.230;2024-02-14T09:59:20;5.40;;;2.58;;
51034;SDS011;37062;52.546;13.230;2024-02-14T10:01:49;5.47;;;2.78;;
51034;SDS011;37062;52.546;13.230;2024-02-14T10:04:20;6.00;;;3.30;;
51034;SDS011;37062;52.546;13.230;2024-02-14T10:06:52;4.10;;;2.90;;
51034;SDS011;37062;52.546;13.230;2024-02-14T10:09:20;3.75;;;2.92;;
51034;SDS011;37062;52.546;13.230;2024-02-14T10:11:51;5.43;;;3.13;;
51034;SDS011;37062;52.546;13.230;2024-02-14T10:14:19;5.85;;;2.88;;
51034;SDS011;37062;52.546;13.230;2024-02-14T10:16:47;6.60;;;3.05;;
51034;SDS011;37062;52.546;13.230;2024-02-14T10:19:15;8.13;;;3.50;;
51034;SDS011;37062;52.546;13.230;2024-02-14T10:21:56;5.82;;;3.00;;
51034;SDS011;37062;52.546;13.230;2024-02-14T10:24:25;6.20;;;2.50;;
51034;SDS011;37062;52.546;13.230;2024-02-14T10:26:54;3.60;;;2.67;;
51034;SDS011;37062;52.546;13.230;2024-02-14T10:29:24;6.00;;;2.70;;
51034;SDS011;37062;52.546;13.230;2024-02-14T10:31:53;3.40;;;2.40;;
51034;SDS011;37062;52.546;13.230;2024-02-14T10:34:24;5.57;;;3.22;;
51034;SDS011;37062;52.546;13.230;2024-02-14T10:36:53;4.35;;;2.90;;
51034;SDS011;37062;52.546;13.230;2024-02-14T10:39:26;5.47;;;3.05;;
51034;SDS011;37062;52.546;13.230;2024-02-14T10:41:57;6.90;;;3.05;;
51034;SDS011;37062;52.546;13.230;2024-02-14T10:44:26;5.28;;;2.45;;
51034;SDS011;37062;52.546;13.230;2024-02-14T10:46:55;4.70;;;3.00;;
51034;SDS011;37062;52.546;13.230;2024-02-14T10:49:27;3.75;;;2.35;;
51034;SDS011;37062;52.546;13.230;2024-02-14T10:51:58;4.55;;;2.45;;
51034;SDS011;37062;52.546;13.230;2024-02-14T10:54:30;5.30;;;2.70;;
51034;SDS011;37062;52.546;13.230;2024-02-14T10:56:58;3.80;;;2.50;;
51034;SDS011;37062;52.546;13.230;2024-02-14T10:59:38;4.90;;;2.72;;
51034;SDS011;37062;52.546;13.230;2024-02-14T11:02:09;5.60;;;3.45;;
51034;SDS011;37062;52.546;13.230;2024-02-14T11:04:38;4.07;;;3.00;;
51034;SDS011;37062;52.546;13.230;2024-02-14T11:07:10;6.47;;;2.92;;
51034;SDS011;37062;52.546;13.230;2024-02-14T11:09:40;6.30;;;3.22;;
51034;SDS011;37062;52.546;13.230;2024-02-14T11:12:08;5.10;;;3.17;;
51034;SDS011;37062;52.546;13.230;2024-02-14T11:14:38;4.50;;;2.88;;
51034;SDS011;37062;52.546;13.230;2024-02-14T11:17:12;4.70;;;3.00;;
51034;SDS011;37062;52.546;13.230;2024-02-14T11:19:40;5.38;;;3.30;;
51034;SDS011;37062;52.546;13.230;2024-02-14T11:22:20;4.72;;;2.67;;
51034;SDS011;37062;52.546;13.230;2024-02-14T11:24:49;5.88;;;2.60;;
51034;SDS011;37062;52.546;13.230;2024-02-14T11:27:17;4.15;;;3.00;;
51034;SDS011;37062;52.546;13.230;2024-02-14T11:30:00;3.47;;;2.50;;
51034;SDS011;37062;52.546;13.230;2024-02-14T11:32:31;4.30;;;2.50;;
51034;SDS011;37062;52.546;13.230;2024-02-14T11:35:00;5.38;;;2.55;;
51034;SDS011;37062;52.546;13.230;2024-02-14T11:37:30;4.53;;;2.45;;
51034;SDS011;37062;52.546;13.230;2024-02-14T11:39:58;4.32;;;2.40;;
51034;SDS011;37062;52.546;13.230;2024-02-14T11:42:27;3.70;;;2.50;;
51034;SDS011;37062;52.546;13.230;2024-02-14T11:44:57;4.55;;;2.72;;
51034;SDS011;37062;52.546;13.230;2024-02-14T11:47:25;4.38;;;2.75;;
51034;SDS011;37062;52.546;13.230;2024-02-14T11:49:54;6.53;;;3.10;;
51034;SDS011;37062;52.546;13.230;2024-02-14T11:52:25;4.85;;;2.80;;
51034;SDS011;37062;52.546;13.230;2024-02-14T11:54:55;4.18;;;2.60;;
51034;SDS011;37062;52.546;13.230;2024-02-14T11:57:23;7.18;;;3.10;;
51034;SDS011;37062;52.546;13.230;2024-02-14T11:59:53;8.20;;;2.60;;
51034;SDS011;37062;52.546;13.230;2024-02-14T12:02:21;6.35;;;2.72;;
51034;SDS011;37062;52.546;13.230;2024-02-14T12:04:50;3.85;;;2.83;;
51034;SDS011;37062;52.546;13.230;2024-02-14T12:07:20;5.35;;;2.80;;
51034;SDS011;37062;52.546;13.230;2024-02-14T12:09:49;6.82;;;2.70;;
51034;SDS011;37062;52.546;13.230;2024-02-14T12:12:19;4.80;;;3.13;;
51034;SDS011;37062;52.546;13.230;2024-02-14T12:14:51;3.95;;;2.50;;
51034;SDS011;37062;52.546;13.230;2024-02-14T12:17:19;6.70;;;3.17;;
51034;SDS011;37062;52.546;13.230;2024-02-14T12:19:48;13.77;;;8.32;;
51034;SDS011;37062;52.546;13.230;2024-02-14T12:22:18;11.20;;;7.05;;
51034;SDS011;37062;52.546;13.230;2024-02-14T12:24:47;7.45;;;4.32;;
51034;SDS011;37062;52.546;13.230;2024-02-14T12:27:16;5.47;;;3.58;;
51034;SDS011;37062;52.546;13.230;2024-02-14T12:29:47;8.70;;;5.38;;
51034;SDS011;37062;52.546;13.230;2024-02-14T12:32:16;10.43;;;5.95;;
51034;SDS011;37062;52.546;13.230;2024-02-14T12:34:44;9.68;;;3.70;;
51034;SDS011;37062;52.546;13.230;2024-02-14T12:37:13;5.30;;;3.30;;
51034;SDS011;37062;52.546;13.230;2024-02-14T12:39:41;6.78;;;3.17;;
51034;SDS011;37062;52.546;13.230;2024-02-14T12:42:10;8.00;;;5.05;;
51034;SDS011;37062;52.546;13.230;2024-02-14T12:44:38;5.38;;;3.38;;
51034;SDS011;37062;52.546;13.230;2024-02-14T12:47:08;5.80;;;2.83;;
51034;SDS011;37062;52.546;13.230;2024-02-14T12:49:36;10.40;;;6.00;;
51034;SDS011;37062;52.546;13.230;2024-02-14T12:52:05;5.07;;;3.17;;
51034;SDS011;37062;52.546;13.230;2024-02-14T12:54:33;6.25;;;3.50;;
51034;SDS011;37062;52.546;13.230;2024-02-14T12:57:01;5.85;;;3.33;;
51034;SDS011;37062;52.546;13.230;2024-02-14T12:59:31;8.23;;;3.88;;
51034;SDS011;37062;52.546;13.230;2024-02-14T13:01:59;4.43;;;3.00;;
51034;SDS011;37062;52.546;13.230;2024-02-14T13:04:28;5.65;;;3.40;;
51034;SDS011;37062;52.546;13.230;2024-02-14T13:06:57;5.78;;;4.07;;
51034;SDS011;37062;52.546;13.230;2024-02-14T13:09:26;7.15;;;3.75;;
51034;SDS011;37062;52.546;13.230;2024-02-14T13:11:55;5.32;;;3.30;;
51034;SDS011;37062;52.546;13.230;2024-02-14T13:14:23;7.10;;;4.45;;
51034;SDS011;37062;52.546;13.230;2024-02-14T13:16:52;5.75;;;3.47;;
51034;SDS011;37062;52.546;13.230;2024-02-14T13:19:20;7.38;;;3.35;;
51034;SDS011;37062;52.546;13.230;2024-02-14T13:21:51;5.53;;;2.90;;
51034;SDS011;37062;52.546;13.230;2024-02-14T13:24:20;5.55;;;3.00;;
51034;SDS011;37062;52.546;13.230;2024-02-14T13:26:48;4.22;;;2.72;;
51034;SDS011;37062;52.546;13.230;2024-02-14T13:29:16;6.80;;;4.25;;
51034;SDS011;37062;52.546;13.230;2024-02-14T13:31:45;7.90;;;4.13;;
51034;SDS011;37062;52.546;13.230;2024-02-14T13:34:14;6.53;;;4.15;;
51034;SDS011;37062;52.546;13.230;2024-02-14T13:36:43;8.43;;;5.32;;
51034;SDS011;37062;52.546;13.230;2024-02-14T13:39:13;6.82;;;3.90;;
51034;SDS011;37062;52.546;13.230;2024-02-14T13:41:41;5.35;;;3.40;;
51034;SDS011;37062;52.546;13.230;2024-02-14T13:44:11;4.75;;;3.20;;
51034;SDS011;37062;52.546;13.230;2024-02-14T13:46:40;9.48;;;5.47;;
51034;SDS011;37062;52.546;13.230;2024-02-14T13:49:11;7.95;;;4.50;;
51034;SDS011;37062;52.546;13.230;2024-02-14T13:51:44;7.38;;;4.20;;
51034;SDS011;37062;52.546;13.230;2024-02-14T13:54:15;5.00;;;3.85;;
51034;SDS011;37062;52.546;13.230;2024-02-14T13:56:43;6.60;;;4.72;;
51034;SDS011;37062;52.546;13.230;2024-02-14T13:59:12;9.95;;;5.60;;
51034;SDS011;37062;52.546;13.230;2024-02-14T14:01:41;8.77;;;5.28;;
51034;SDS011;37062;52.546;13.230;2024-02-14T14:04:09;7.05;;;4.88;;
51034;SDS011;37062;52.546;13.230;2024-02-14T14:06:39;6.35;;;4.15;;
51034;SDS011;37062;52.546;13.230;2024-02-14T14:09:07;6.43;;;3.63;;
51034;SDS011;37062;52.546;13.230;2024-02-14T14:11:38;5.00;;;3.30;;
51034;SDS011;37062;52.546;13.230;2024-02-14T14:14:07;6.63;;;4.32;;
51034;SDS011;37062;52.546;13.230;2024-02-14T14:16:38;6.93;;;3.90;;
51034;SDS011;37062;52.546;13.230;2024-02-14T14:19:06;6.28;;;3.53;;
51034;SDS011;37062;52.546;13.230;2024-02-14T14:21:35;6.60;;;3.63;;
51034;SDS011;37062;52.546;13.230;2024-02-14T14:24:04;6.10;;;4.13;;
51034;SDS011;37062;52.546;13.230;2024-02-14T14:26:33;7.50;;;4.75;;
51034;SDS011;37062;52.546;13.230;2024-02-14T14:29:03;5.00;;;3.15;;
51034;SDS011;37062;52.546;13.230;2024-02-14T14:31:32;6.50;;;3.22;;
51034;SDS011;37062;52.546;13.230;2024-02-14T14:34:02;5.97;;;3.45;;
51034;SDS011;37062;52.546;13.230;2024-02-14T14:36:30;5.68;;;4.10;;
51034;SDS011;37062;52.546;13.230;2024-02-14T14:38:59;8.75;;;4.53;;
51034;SDS011;37062;52.546;13.230;2024-02-14T14:41:28;8.38;;;4.30;;
51034;SDS011;37062;52.546;13.230;2024-02-14T14:43:57;6.38;;;4.35;;